Osage River (Missouri), Tuscumbia (06926080)

StateMissouriLatestUnknown (4090 cfs)
RiverOsage RiverRatingObservedEstimated
Updated2020-08-14 8:00 (1 hour ago)Flood - The river is flooding. Obstacles can be treacherous or deadly. The river should be avoided at this stage for casual trips and definitely for the inexperienced. Trips should be attempted only with protective gear and equipment.Flood(none)(none)
Discharge4090 cfs (median: 11800 cfs)High - The river is high and potentially dangerous, especially for the young and / or inexperienced. Normal stream obstacles are sometimes difficult to navigate. Extended distances can be attempted, but canoe travel may not be advisable.High(none)(none)
Height3.87 feetGood - Conditions are ideal for a canoe or kayak. Boats typically will drag on fewer than one-quarter of riffles, if at all, and portages are unnecessary or rare. Normal float lengths can be attempted without a problem.Good(none)(none)
TrendFalling (falling over 24 hours)Low - River is low but can still be floated. Some riffles are okay but most come with significant dragging and might need a portage. Float lengths should be reduced to accommodate low flow, dragging, and portages.Low(none)(none)
USGSExternal icon USGS Site (External icon Google Maps)Poor - River is too low to float comfortably. Most or all riffles will drag or must be portaged and some obstacles (such as slick shelf rock) cause undue problems. Avoid the river at this stage for casual paddling trips.Poor(none)(none)

Trending Data

Plot Image

Trips for Osage River (Missouri), Tuscumbia (06926080)

DateStartEndDistanceConditionDischargeHeightFishingDetails

A total of 0 rows are displayed.

Condition Descriptions

Fishing Conditions

Fish Species

Notes

Classic Trip List

The classic River Trips application is still available for use. It is updated with the new system using a data retrofit. It is no longer maintained. The original River Trips application is no longer updated (as of 1 Dec 2016) but can be checked for errors or for the condition of the data before it was converted to the new system.

Gauge Data Table

ObservationHeightDischargeMaximum
Discharge
Minimum
Discharge
Mean
Discharge
P05P10P20P25P50
(Median)
P75P80P90P95
2020-08-14 08:00 3.87 4090 40000 (2019) 1210 (2018) 16200 1210 2200 11800 34600 40000
2020-08-14 07:00 4.08 4460 40000 (2019) 1210 (2018) 16200 1210 2200 11800 34600 40000
2020-08-14 06:00 4.31 4830 40000 (2019) 1210 (2018) 16200 1210 2200 11800 34600 40000
2020-08-14 05:00 4.58 5270 40000 (2019) 1210 (2018) 16200 1210 2200 11800 34600 40000
2020-08-14 04:00 4.88 5810 40000 (2019) 1210 (2018) 16200 1210 2200 11800 34600 40000
2020-08-14 03:00 5.22 6450 40000 (2019) 1210 (2018) 16200 1210 2200 11800 34600 40000
2020-08-14 02:00 5.57 7160 40000 (2019) 1210 (2018) 16200 1210 2200 11800 34600 40000
2020-08-14 01:00 5.96 7980 40000 (2019) 1210 (2018) 16200 1210 2200 11800 34600 40000
2020-08-14 00:00 6.36 8860 40000 (2019) 1210 (2018) 16200 1210 2200 11800 34600 40000
2020-08-13 23:00 6.78 9820 44800 (2019) 1090 (2018) 20600 1090 4870 18200 38700 44800
2020-08-13 22:00 7.18 10800 44800 (2019) 1090 (2018) 20600 1090 4870 18200 38700 44800
2020-08-13 21:00 7.50 11600 44800 (2019) 1090 (2018) 20600 1090 4870 18200 38700 44800
2020-08-13 20:00 7.57 11700 44800 (2019) 1090 (2018) 20600 1090 4870 18200 38700 44800
2020-08-13 19:00 6.92 10200 44800 (2019) 1090 (2018) 20600 1090 4870 18200 38700 44800
2020-08-13 18:00 5.67 7360 44800 (2019) 1090 (2018) 20600 1090 4870 18200 38700 44800
2020-08-13 17:00 4.12 4520 44800 (2019) 1090 (2018) 20600 1090 4870 18200 38700 44800
2020-08-13 16:00 3.25 3140 44800 (2019) 1090 (2018) 20600 1090 4870 18200 38700 44800
2020-08-13 15:00 3.19 3060 44800 (2019) 1090 (2018) 20600 1090 4870 18200 38700 44800
2020-08-13 14:00 3.28 3180 44800 (2019) 1090 (2018) 20600 1090 4870 18200 38700 44800
2020-08-13 13:00 3.40 3350 44800 (2019) 1090 (2018) 20600 1090 4870 18200 38700 44800
2020-08-13 12:00 3.52 3520 44800 (2019) 1090 (2018) 20600 1090 4870 18200 38700 44800
2020-08-13 11:00 3.67 3740 44800 (2019) 1090 (2018) 20600 1090 4870 18200 38700 44800
2020-08-13 10:00 3.84 4040 44800 (2019) 1090 (2018) 20600 1090 4870 18200 38700 44800
2020-08-13 09:00 4.04 4390 44800 (2019) 1090 (2018) 20600 1090 4870 18200 38700 44800
2020-08-13 08:00 4.27 4760 44800 (2019) 1090 (2018) 20600 1090 4870 18200 38700 44800
2020-08-13 07:00 4.53 5180 44800 (2019) 1090 (2018) 20600 1090 4870 18200 38700 44800
2020-08-13 06:00 4.83 5720 44800 (2019) 1090 (2018) 20600 1090 4870 18200 38700 44800
2020-08-13 05:00 5.16 6330 44800 (2019) 1090 (2018) 20600 1090 4870 18200 38700 44800
2020-08-13 04:00 5.53 7070 44800 (2019) 1090 (2018) 20600 1090 4870 18200 38700 44800
2020-08-13 03:00 5.94 7940 44800 (2019) 1090 (2018) 20600 1090 4870 18200 38700 44800
2020-08-13 02:00 6.38 8900 44800 (2019) 1090 (2018) 20600 1090 4870 18200 38700 44800
2020-08-13 01:00 6.85 9990 44800 (2019) 1090 (2018) 20600 1090 4870 18200 38700 44800
2020-08-13 00:00 7.33 11100 44800 (2019) 1090 (2018) 20600 1090 4870 18200 38700 44800

A total of 33 rows are displayed for years 2016 through 2019.